Latest Weather Observations for Bourke

IDN60801

Issued at 9:32 pm EDT Monday 20 February 2017 (issued every 30 minutes, with the page automatically refreshed every 10 minutes)

About weather observations | Map of weather stations | Latest weather observations for NSW | Other Formats
Station Details ID: 048245 Name: BOURKE AIRPORT AWS Lat: -30.04 Lon: 145.95 Height: 107.3 m
Data from the previous 72 hours. | See also: Recent months at Bourke
Date/Time
EDT
Temp
°C
App
Temp
°C
Dew
Point
°C
Rel
Hum
%
Delta-T
°C
Wind Press
QNH
hPa
Press
MSL
hPa
Rain since
9am
mm
Dir  Spd
km/h
Gust
km/h
Spd
kts
Gust
kts
20/09:30pm 24.0 20.8 2.8 25 10.2 WSW 9 11 5 6 1015.1 1014.4 0.0
20/09:00pm 24.9 21.8 3.5 25 10.5 W 9 13 5 7 1014.6 1013.9 0.0
20/08:30pm 25.9 22.6 2.6 22 11.4 W 9 13 5 7 1014.1 1013.4 0.0
20/08:00pm 26.7 23.7 1.9 20 12.0 WSW 7 9 4 5 1013.6 1012.9 0.0
20/07:30pm 27.8 24.4 2.1 19 12.6 WSW 9 15 5 8 1013.1 1012.4 0.0
20/07:00pm 28.2 24.4 1.7 18 12.9 SW 11 17 6 9 1012.8 1012.1 0.0
20/06:30pm 28.3 24.5 1.7 18 13.0 SW 11 20 6 11 1012.4 1011.7 0.0
20/06:00pm 28.6 24.1 2.0 18 13.1 WSW 15 26 8 14 1012.3 1011.6 0.0
20/05:30pm 28.9 24.4 2.2 18 13.2 SSW 15 35 8 19 1012.3 1011.6 0.0
20/05:00pm 28.6 24.5 2.0 18 13.1 W 13 20 7 11 1012.3 1011.6 0.0
20/04:30pm 28.9 24.8 2.2 18 13.2 WSW 13 22 7 12 1012.4 1011.7 0.0
20/04:00pm 28.6 24.8 2.0 18 13.1 WSW 11 24 6 13 1012.8 1012.1 0.0
20/03:30pm 27.7 22.8 2.0 19 12.6 WSW 17 30 9 16 1013.0 1012.3 0.0
20/03:00pm 27.2 22.1 0.8 18 12.6 SSE 17 28 9 15 1013.2 1012.5 0.0
20/02:30pm 27.2 23.1 2.3 20 12.2 SSW 13 24 7 13 1013.7 1013.0 0.0
20/02:00pm 26.2 22.9 2.2 21 11.7 SW 9 17 5 9 1013.9 1013.2 0.0
20/01:30pm 25.3 21.2 2.1 22 11.2 SSE 13 26 7 14 1014.2 1013.5 0.0
20/01:00pm 26.2 22.5 2.2 21 11.7 S 11 24 6 13 1014.6 1013.9 0.0
20/12:30pm 24.8 19.9 2.3 23 10.8 SSW 17 28 9 15 1015.1 1014.4 0.0
20/12:00pm 24.1 19.7 2.9 25 10.3 SW 15 28 8 15 1015.4 1014.7 0.0
20/11:30am 23.3 19.2 2.2 25 10.0 SSE 13 20 7 11 1015.5 1014.8 0.0
20/11:00am 22.9 18.1 2.4 26 9.7 SSW 17 24 9 13 1015.8 1015.1 0.0
20/10:30am 22.9 18.2 2.9 27 9.6 SSE 17 24 9 13 1015.9 1015.2 0.0
20/10:00am 21.8 16.7 3.0 29 9.0 S 19 24 10 13 1015.8 1015.1 0.0
20/09:30am 20.9 16.1 2.7 30 8.6 S 17 22 9 12 1015.6 1014.9 0.0
20/09:00am 19.6 16.2 1.6 30 8.2 SSW 9 15 5 8 1015.4 1014.7 0.0
20/08:30am 18.4 14.9 1.0 31 7.8 SW 9 13 5 7 1015.2 1014.5 0.0
20/08:00am 16.5 13.2 0.2 33 7.0 SW 7 11 4 6 1014.8 1014.1 0.0
20/07:30am 14.1 10.8 0.4 39 5.8 WSW 7 7 4 4 1014.3 1013.6 0.0
20/07:00am 13.3 9.9 -0.3 39 5.6 SSW 7 9 4 5 1013.6 1012.9 0.0
20/06:30am 14.3 10.7 0.6 39 5.9 SW 9 11 5 6 1013.6 1012.9 0.0
20/06:00am 14.6 10.9 -0.3 36 6.3 SSW 9 11 5 6 1013.2 1012.5 0.0
20/05:30am 14.7 10.6 -0.2 36 6.3 SSW 11 13 6 7 1013.4 1012.7 0.0
20/05:00am 15.3 11.5 -0.4 34 6.6 SSW 9 13 5 7 1013.4 1012.7 0.0
20/04:30am 15.4 11.3 -0.4 34 6.7 SW 11 13 6 7 1013.4 1012.7 0.0
20/04:00am 16.4 12.0 0.1 33 7.0 WSW 13 17 7 9 1013.3 1012.6 0.0
20/03:30am 15.8 12.4 -0.8 32 7.0 WSW 7 11 4 6 1013.0 1012.3 0.0
20/03:00am 16.1 12.7 -0.6 32 7.1 W 7 9 4 5 1013.0 1012.3 0.0
20/02:30am 16.5 13.1 -0.7 31 7.3 WSW 7 9 4 5 1012.9 1012.2 0.0
20/02:00am 17.1 12.9 -0.6 30 7.6 WSW 11 13 6 7 1012.9 1012.2 0.0
20/01:30am 17.9 13.8 -0.4 29 7.9 WSW 11 15 6 8 1013.0 1012.3 0.0
20/01:00am 18.7 14.6 -0.2 28 8.3 WSW 11 15 6 8 1013.0 1012.3 0.0
20/12:30am 19.3 15.2 -0.1 27 8.5 WSW 11 17 6 9 1013.0 1012.3 0.0
20/12:00am 20.0 15.5 -0.1 26 8.9 WSW 13 20 7 11 1012.9 1012.2 0.0
 
Date/Time
EDT
Temp
°C
App
Temp
°C
Dew
Point
°C
Rel
Hum
%
Delta-T
°C
Wind Press
QNH
hPa
Press
MSL
hPa
Rain since
9am
mm
Dir  Spd
km/h
Gust
km/h
Spd
kts
Gust
kts
19/11:30pm 20.7 15.8 -0.6 24 9.4 WSW 15 20 8 11 1012.7 1012.0 0.0
19/11:00pm 21.3 16.1 -0.1 24 9.6 WSW 17 24 9 13 1012.6 1011.9 0.0
19/10:30pm 21.8 16.6 -0.2 23 9.9 WSW 17 24 9 13 1012.4 1011.7 0.0
19/10:00pm 22.2 17.0 0.1 23 10.0 WSW 17 22 9 12 1011.9 1011.2 0.0
19/09:30pm 22.8 17.7 0.6 23 10.2 WSW 17 26 9 14 1011.4 1010.7 0.0
19/09:00pm 23.4 18.2 -0.1 21 10.7 WSW 17 26 9 14 1011.0 1010.3 0.0
19/08:30pm 24.1 18.5 -0.2 20 11.1 WSW 19 28 10 15 1010.5 1009.8 0.0
19/08:00pm 24.8 18.9 -1.1 18 11.7 W 20 35 11 19 1010.3 1009.6 0.0
19/07:30pm 26.0 20.0 -1.7 16 12.5 WSW 20 32 11 17 1009.8 1009.0 0.0
19/07:00pm 26.6 19.8 -2.1 15 13.0 WSW 24 39 13 21 1009.4 1008.7 0.0
19/06:30pm 27.1 20.7 -1.7 15 13.1 WSW 22 33 12 18 1009.1 1008.4 0.0
19/06:00pm 27.2 21.2 -1.7 15 13.2 WSW 20 33 11 18 1009.0 1008.3 0.0
19/05:30pm 27.9 21.8 -2.0 14 13.6 WSW 20 32 11 17 1009.0 1008.3 0.0
19/05:00pm 28.3 22.3 -1.7 14 13.8 WSW 20 33 11 18 1009.0 1008.3 0.0
19/04:30pm 27.9 22.5 -1.1 15 13.4 SW 17 33 9 18 1009.3 1008.6 0.0
19/04:00pm 27.4 21.5 -2.4 14 13.5 SW 19 32 10 17 1009.8 1009.0 0.0
19/03:30pm 27.2 21.2 -1.7 15 13.2 WSW 20 28 11 15 1010.1 1009.4 0.0
19/03:00pm 27.7 21.7 -1.3 15 13.4 WSW 20 33 11 18 1010.4 1009.7 0.0
19/02:30pm 27.4 21.6 -1.5 15 13.2 W 19 32 10 17 1010.7 1010.0 0.0
19/02:00pm 26.4 20.2 -0.6 17 12.5 SW 22 37 12 20 1011.1 1010.4 0.0
19/01:30pm 26.5 20.6 -0.5 17 12.5 SSW 20 32 11 17 1011.2 1010.5 0.0
19/01:14pm 25.9 20.1 -0.2 18 12.1 S 20 41 11 22 1011.4 1010.7 0.0
19/01:00pm 25.3 19.6 -0.7 18 11.9 SW 19 35 10 19 1011.6 1010.9 0.0
19/12:30pm 25.6 19.1 0.3 19 11.8 SSW 24 37 13 20 1012.0 1011.3 0.0
19/12:00pm 25.2 19.1 0.7 20 11.5 SW 22 35 12 19 1012.4 1011.7 0.0
19/11:30am 24.4 18.0 0.7 21 11.1 SSW 24 37 13 20 1012.5 1011.8 0.0
19/11:00am 24.0 18.3 0.4 21 10.9 S 20 32 11 17 1012.7 1012.0 0.0
19/10:30am 23.1 17.0 0.2 22 10.5 S 22 30 12 16 1012.7 1012.0 0.0
19/10:00am 23.1 16.6 0.2 22 10.5 S 24 32 13 17 1012.5 1011.8 0.0
19/09:30am 22.3 16.2 0.2 23 10.0 S 22 30 12 16 1012.5 1011.8 0.0
19/09:00am 21.0 15.3 0.8 26 9.2 S 20 30 11 16 1012.5 1011.8 0.0
19/08:30am 20.1 14.7 1.5 29 8.5 S 19 24 10 13 1012.3 1011.6 0.0
19/08:00am 19.0 14.2 2.4 33 7.7 SSW 17 24 9 13 1012.2 1011.5 0.0
19/07:30am 18.1 13.6 2.0 34 7.3 SSW 15 19 8 10 1011.9 1011.2 0.0
19/07:00am 18.1 13.4 1.2 32 7.6 SSW 15 19 8 10 1011.6 1010.9 0.0
19/06:30am 18.5 13.9 1.5 32 7.7 SSW 15 19 8 10 1011.2 1010.5 0.0
19/06:00am 18.7 14.5 1.7 32 7.7 S 13 17 7 9 1010.9 1010.2 0.0
19/05:30am 18.8 14.5 1.3 31 7.9 S 13 15 7 8 1010.7 1010.0 0.0
19/05:00am 19.6 13.7 1.6 30 8.2 S 22 28 12 15 1010.6 1009.9 0.0
19/04:30am 20.0 14.5 1.9 30 8.3 S 20 24 11 13 1010.3 1009.6 0.0
19/04:00am 20.4 14.9 1.8 29 8.6 S 20 32 11 17 1010.3 1009.6 0.0
19/03:30am 21.2 15.3 2.0 28 9.0 S 22 32 12 17 1010.1 1009.4 0.0
19/03:00am 21.7 15.8 1.9 27 9.3 S 22 30 12 16 1010.1 1009.4 0.0
19/02:30am 22.1 16.9 2.2 27 9.4 S 19 26 10 14 1010.1 1009.4 0.0
19/02:00am 22.8 17.0 2.3 26 9.8 S 22 32 12 17 1009.8 1009.0 0.0
19/01:30am 23.4 17.9 1.7 24 10.2 SSW 20 32 11 17 1009.7 1008.9 0.0
19/01:00am 24.0 17.8 2.2 24 10.4 SSW 24 33 13 18 1009.3 1008.6 0.0
19/12:30am 25.0 19.0 3.6 25 10.6 SSW 24 33 13 18 1009.2 1008.5 0.0
19/12:00am 25.5 19.7 4.6 26 10.6 SSW 24 33 13 18 1009.0 1008.3 0.0
 
Date/Time
EDT
Temp
°C
App
Temp
°C
Dew
Point
°C
Rel
Hum
%
Delta-T
°C
Wind Press
QNH
hPa
Press
MSL
hPa
Rain since
9am
mm
Dir  Spd
km/h
Gust
km/h
Spd
kts
Gust
kts
18/11:30pm 26.0 21.5 6.1 28 10.4 SSW 19 26 10 14 1009.0 1008.3 0.0
18/11:00pm 25.7 23.3 6.8 30 10.0 WSW 9 13 5 7 1008.6 1007.9 0.0
18/10:30pm 26.6 24.1 6.6 28 10.5 SW 9 13 5 7 1008.3 1007.6 0.0
18/10:00pm 27.7 24.2 7.0 27 11.1 SW 15 20 8 11 1008.0 1007.3 0.0
18/09:30pm 28.3 24.8 7.0 26 11.4 SW 15 22 8 12 1007.4 1006.7 0.0
18/09:00pm 29.0 25.2 7.6 26 11.6 SW 17 22 9 12 1007.0 1006.3 0.0
18/08:30pm 29.8 25.7 7.7 25 12.1 SW 19 28 10 15 1006.4 1005.7 0.0
18/08:00pm 30.7 26.0 7.8 24 12.6 SW 22 33 12 18 1005.7 1005.0 0.0
18/07:30pm 31.7 26.2 7.4 22 13.3 SW 26 35 14 19 1005.2 1004.5 0.0
18/07:00pm 32.8 26.9 7.6 21 14.0 SW 28 43 15 23 1004.9 1004.2 0.0
18/06:30pm 33.5 28.0 7.5 20 14.4 SW 26 39 14 21 1004.6 1003.9 0.0
18/06:00pm 34.0 28.6 7.9 20 14.7 WSW 26 37 14 20 1004.7 1004.0 0.0
18/05:30pm 34.5 29.7 7.5 19 15.1 WSW 22 37 12 20 1004.6 1003.9 0.0
18/05:00pm 34.6 29.3 6.8 18 15.4 SW 24 43 13 23 1004.9 1004.2 0.0
18/04:30pm 35.3 30.1 7.4 18 15.6 SW 24 41 13 22 1005.0 1004.3 0.0
18/04:00pm 35.8 30.5 7.0 17 16.1 SW 24 41 13 22 1005.1 1004.4 0.0
18/03:30pm 36.9 32.0 7.0 16 16.7 SW 22 33 12 18 1005.4 1004.7 0.0
18/03:00pm 35.4 30.4 6.6 17 15.9 WSW 22 35 12 19 1005.5 1004.8 0.0
18/02:30pm 35.9 30.1 6.2 16 16.3 SW 26 37 14 20 1005.8 1005.1 0.0
18/02:00pm 36.6 32.0 6.7 16 16.7 SW 20 30 11 16 1005.7 1005.0 0.0
18/01:30pm 34.8 29.9 7.0 18 15.4 SSW 22 30 12 16 1005.8 1005.1 0.0
18/01:00pm 34.0 29.5 7.1 19 14.9 SSW 20 28 11 15 1006.0 1005.3 0.0
18/12:30pm 33.8 28.9 7.0 19 14.8 SW 22 33 12 18 1006.3 1005.6 0.0
18/12:00pm 33.0 28.5 7.1 20 14.3 SSW 20 28 11 15 1006.4 1005.7 0.0
18/11:30am 32.3 26.7 7.2 21 13.8 S 26 33 14 18 1006.6 1005.9 0.0
18/11:00am 31.0 25.5 6.1 21 13.4 SSW 24 37 13 20 1006.8 1006.1 0.0
18/10:30am 30.4 24.6 6.3 22 12.9 S 26 35 14 19 1006.7 1006.0 0.0
18/10:00am 29.8 23.9 5.8 22 12.7 S 26 37 14 20 1006.8 1006.1 0.0
18/09:30am 29.0 23.1 5.8 23 12.2 S 26 35 14 19 1006.9 1006.2 0.0
18/09:00am 28.7 23.2 6.1 24 12.0 S 24 35 13 19 1006.8 1006.1 0.0
18/08:30am 27.5 22.1 6.3 26 11.2 S 24 32 13 17 1006.5 1005.8 0.0
18/08:00am 26.8 22.1 7.8 30 10.3 S 22 30 12 16 1006.2 1005.5 0.0
18/07:30am 26.2 21.8 9.1 34 9.4 SSW 22 28 12 15 1005.8 1005.1 0.0
18/07:00am 24.9 21.9 9.2 37 8.6 SSW 15 22 8 12 1005.4 1004.7 0.0
18/06:30am 23.8 20.9 6.6 33 8.9 SSW 11 17 6 9 1005.0 1004.3 0.0
18/06:00am 23.1 19.3 4.1 29 9.4 SW 13 15 7 8 1004.6 1003.9 0.0
18/05:30am 23.5 19.6 3.4 27 9.8 SW 13 17 7 9 1004.3 1003.6 0.0
18/05:00am 24.4 20.7 2.5 24 10.6 SSW 11 15 6 8 1004.1 1003.4 0.0
18/04:30am 24.1 20.2 1.1 22 10.8 SW 11 15 6 8 1004.3 1003.6 0.0
18/04:00am 25.1 21.8 -0.1 19 11.7 S 7 11 4 6 1004.1 1003.4 0.0
18/03:30am 26.4 22.8 0.9 19 12.1 SSE 9 11 5 6 1004.3 1003.6 0.0
18/03:00am 27.3 23.6 0.1 17 12.9 SE 9 11 5 6 1004.4 1003.7 0.0
18/02:30am 27.6 23.5 -0.5 16 13.1 SE 11 13 6 7 1004.4 1003.7 0.0
18/02:00am 28.9 24.3 -1.2 14 14.1 SSE 13 15 7 8 1004.8 1004.1 0.0
18/01:30am 29.4 25.5 1.0 16 13.8 S 11 13 6 7 1005.2 1004.5 0.0
18/01:29am 29.2 25.2 0.8 16 13.7 S 11 13 6 7 1005.2 1004.5 0.0
18/01:00am 24.2 19.9 -4.9 14 12.2 SSW 9 11 5 6 1005.4 1004.7 0.0
18/12:30am 24.3 20.6 -4.9 14 12.2 SSW 6 7 3 4 1005.7 1005.0 0.0
18/12:00am 25.2 21.3 -4.2 14 12.6 SW 7 9 4 5 1005.9 1005.2 0.0
 
Date/Time
EDT
Temp
°C
App
Temp
°C
Dew
Point
°C
Rel
Hum
%
Delta-T
°C
Wind Press
QNH
hPa
Press
MSL
hPa
Rain since
9am
mm
Dir  Spd
km/h
Gust
km/h
Spd
kts
Gust
kts
17/11:30pm 25.8 22.0 -5.7 12 13.2 WSW 6 7 3 4 1005.8 1005.1 0.0
17/11:00pm 27.5 23.8 -3.3 13 13.7 SW 7 9 4 5 1005.9 1005.2 0.0
17/10:30pm 28.4 24.6 -3.7 12 14.3 SW 7 9 4 5 1005.9 1005.2 0.0
17/10:00pm 28.8 24.9 -4.6 11 14.7 SSW 7 9 4 5 1005.8 1005.1 0.0

Other Formats:

Comma delimited format used in spreadsheet applications
http://www.bom.gov.au/fwo/IDN60801/IDN60801.94703.axf

JavaScript Object Notation format (JSON) in row-major order
http://www.bom.gov.au/fwo/IDN60801/IDN60801.94703.json